Strona główna
METAR-TAF:

METAR-TAF

Lotnisko :

Port lotniczy Koror

Koror, Babeldaob, Palau

Szerokość geograficzna: 07-22N, Długość geograficzna: 134-32E, wysokość: 54 m

Aktualna obserwacja pogody

Raport powstał 49 minut temu, godzina 11:50 UTC
Cisza
Temperatura 27°C
Wilgotność 89%
Ciśnienie 1010 hPa
Widzialność: 24.1 km
Mało chmury na wysokości 1600 ft
Rozproszone chmury na wysokości 30000 ft

METAR: PTRO 181150Z 00000KT 15SM FEW016 SCT300 27/25 A2982

czas: 21:39 (12:39 UTC)

Prognoza

Raport powstał 1 godzina i 19 minut temu, godzina 11:20 UTC
Prognoza ważna od 18 godzina 12 UTC do 19 godzina 12 UTC
Wiatr 7 kt od zachodnio-południowy zachód
Widzialność: 10 km
Rozproszone chmury na wysokości 1600 ft
Rozproszone chmury na wysokości 12000 ft
przelotny w pobliże

TAF: PTRO 181120Z 1812/1912 25007KT P6SM VCSH SCT016 SCT120

Obserwacja i prognoza pogody dla ponad 4000 lotnisk (raport METAR i TAF).

Dostępne stacje oznaczono żółtymi i czerwonymi punktami na mapie.

Najedź kursorem aby zobaczyć nazwę stacji.

Kliknij aby zobaczyć obserwacje i prognozy pogody.

Aby zmienić mapę: kliknij na zielony przycisk z czarnym krzyżykiem, aby powiększyć; na zielony przycisk z myślnikiem, aby pomniejszyć; na zielone strzałki, aby przejść do map sąsiednich.


METAR-TAF: